Time;durP1;ratioP1;P1;durP2;ratioP2;P2;SDS_P1;SDS_P2;PMS_P1;PMS_P2;Temp;Humidity;BMP_temperature;BMP_pressure;BME280_temperature;BME280_humidity;BME280_pressure;Samples;Min_cycle;Max_cycle;Signal;HPM_P1;HPM_P2
2022/06/05 00:01:52;;;;;;;;;23.60;22.20;;;;;27.04;53.12;99503.34;5014369;28;8854;-76
2022/06/05 00:04:34;;;;;;;;;23.80;23.80;;;;;27.01;53.09;99498.22;5046956;28;8930;-75
2022/06/05 00:07:09;;;;;;;;;24.60;23.80;;;;;26.98;53.19;99495.75;5030515;28;8988;-73
2022/06/05 00:09:51;;;;;;;;;20.80;20.80;;;;;26.99;52.88;99499.28;5047105;28;8876;-74
2022/06/05 00:12:23;;;;;;;;;23.60;23.60;;;;;26.98;53.23;99498.44;5046880;28;8866;-73
2022/06/05 00:14:51;;;;;;;;;23.60;23.20;;;;;26.97;53.22;99495.84;5046702;28;8822;-73
2022/06/05 00:17:23;;;;;;;;;23.40;23.00;;;;;26.95;53.26;99489.75;5066304;28;8855;-73
2022/06/05 00:19:53;;;;;;;;;18.20;18.20;;;;;26.87;53.15;99487.59;5089503;28;8952;-75
2022/06/05 00:22:22;;;;;;;;;27.50;24.75;;;;;26.80;53.56;99492.50;5054146;28;8883;-73
2022/06/05 00:24:51;;;;;;;;;22.60;21.60;;;;;26.57;54.85;99493.22;5089704;28;8844;-73
2022/06/05 00:27:28;;;;;;;;;25.75;25.75;;;;;26.61;54.37;99489.38;5089228;28;8881;-73
2022/06/05 00:30:07;;;;;;;;;28.00;25.25;;;;;26.62;54.58;99483.94;5089391;28;8827;-73
2022/06/05 00:32:43;;;;;;;;;18.60;18.60;;;;;26.63;55.40;99482.13;5089578;28;8958;-74
2022/06/05 00:35:16;;;;;;;;;28.25;27.75;;;;;26.66;55.27;99486.41;5088240;28;8855;-73
2022/06/05 00:37:54;;;;;;;;;27.25;26.25;;;;;26.64;55.27;99495.41;5089223;28;8914;-74
2022/06/05 00:40:46;;;;;;;;;32.00;30.25;;;;;26.53;56.32;99503.25;5070566;28;8859;-75
2022/06/05 00:43:18;;;;;;;;;31.00;29.25;;;;;26.42;56.81;99501.28;5087873;28;8851;-74
2022/06/05 00:45:47;;;;;;;;;29.75;27.75;;;;;26.37;57.15;99500.75;5089217;28;8916;-74
2022/06/05 00:48:18;;;;;;;;;27.25;27.00;;;;;26.25;57.54;99496.22;5089444;28;8859;-74
2022/06/05 00:50:48;;;;;;;;;30.00;28.25;;;;;25.74;59.19;99502.16;5088972;28;8852;-73
2022/06/05 00:53:17;;;;;;;;;22.50;22.50;;;;;25.35;60.31;99498.41;5089436;28;8851;-75
2022/06/05 00:55:50;;;;;;;;;28.50;27.50;;;;;24.90;61.65;99509.09;5089002;28;8847;-74
2022/06/05 00:58:21;;;;;;;;;22.50;22.00;;;;;25.04;61.08;99513.59;5088930;28;8882;-72
2022/06/05 01:00:53;;;;;;;;;26.75;25.25;;;;;25.23;60.36;99517.84;5053984;28;8851;-74
2022/06/05 01:03:25;;;;;;;;;26.50;26.00;;;;;25.39;59.89;99517.75;5088626;28;8870;-73
2022/06/05 01:05:53;;;;;;;;;25.00;24.75;;;;;25.51;59.39;99516.97;5089157;28;8958;-73
2022/06/05 01:08:22;;;;;;;;;28.25;27.00;;;;;25.61;59.38;99509.25;5070273;28;8832;-72
2022/06/05 01:11:05;;;;;;;;;26.50;25.25;;;;;25.70;58.69;99508.66;5089177;28;8848;-74
2022/06/05 01:13:47;;;;;;;;;24.00;24.00;;;;;25.76;58.36;99507.41;5089209;28;8840;-74
2022/06/05 01:16:25;;;;;;;;;24.75;24.00;;;;;25.80;58.00;99506.25;5088851;28;8850;-74
2022/06/05 01:19:07;;;;;;;;;27.80;27.80;;;;;25.83;57.70;99506.06;5088867;28;8867;-73
2022/06/05 01:22:14;;;;;;;;;24.40;24.40;;;;;25.83;57.96;99509.59;5087517;28;8840;-73
2022/06/05 01:25:02;;;;;;;;;24.50;23.50;;;;;25.81;57.97;99497.28;5088275;28;8844;-74
2022/06/05 01:27:38;;;;;;;;;22.80;22.80;;;;;25.84;57.90;99499.75;5088518;28;9651;-74
2022/06/05 01:30:12;;;;;;;;;24.20;22.80;;;;;25.85;57.78;99496.97;5069269;28;8844;-73
2022/06/05 01:32:50;;;;;;;;;22.00;22.00;;;;;25.87;57.80;99495.06;5088890;28;8852;-73
2022/06/05 01:35:27;;;;;;;;;25.00;24.00;;;;;25.90;57.42;99493.16;5052737;28;8870;-74
2022/06/05 01:38:01;;;;;;;;;23.20;22.00;;;;;25.91;57.33;99494.88;5088437;28;8860;-73
2022/06/05 01:40:35;;;;;;;;;23.60;22.60;;;;;25.88;57.22;99496.78;5088945;28;8840;-72
2022/06/05 01:43:09;;;;;;;;;25.00;25.00;;;;;25.87;57.54;99504.91;5088765;28;8835;-73
2022/06/05 01:45:42;;;;;;;;;24.75;23.75;;;;;25.76;58.25;99510.94;5088460;28;8855;-73
2022/06/05 01:48:18;;;;;;;;;27.75;27.50;;;;;25.64;58.91;99509.06;5088246;28;8950;-74
2022/06/05 01:50:50;;;;;;;;;29.00;27.25;;;;;25.10;61.15;99507.03;5088299;28;8860;-74
2022/06/05 01:53:24;;;;;;;;;23.75;23.50;;;;;24.95;61.72;99511.47;5088675;28;8839;-74
2022/06/05 01:55:56;;;;;;;;;25.00;24.75;;;;;25.04;61.24;99513.59;5088259;28;8848;-74
2022/06/05 01:58:33;;;;;;;;;26.75;25.25;;;;;24.87;62.38;99511.94;5088167;28;8968;-73
2022/06/05 02:01:08;;;;;;;;;28.00;27.50;;;;;24.65;63.54;99524.84;5088121;28;8870;-73
2022/06/05 02:03:40;;;;;;;;;29.75;28.25;;;;;24.54;63.66;99516.63;5088391;28;8904;-74
2022/06/05 02:06:14;;;;;;;;;26.25;25.25;;;;;24.48;63.97;99508.03;5088192;28;8855;-73
2022/06/05 02:08:45;;;;;;;;;25.25;24.25;;;;;24.51;63.83;99513.19;5088554;28;8840;-73
2022/06/05 02:11:20;;;;;;;;;27.40;26.60;;;;;24.56;63.72;99507.59;5086956;28;8851;-72
2022/06/05 02:13:52;;;;;;;;;24.60;24.60;;;;;24.68;63.21;99500.66;5088394;28;8848;-73
2022/06/05 02:16:21;;;;;;;;;26.80;26.80;;;;;24.79;62.79;99503.56;5065423;28;9095;-74
2022/06/05 02:18:51;;;;;;;;;30.50;28.75;;;;;24.90;62.40;99497.59;5065246;28;8897;-74
2022/06/05 02:21:20;;;;;;;;;34.25;31.50;;;;;24.98;62.10;99499.78;5048777;28;8918;-74
2022/06/05 02:23:48;;;;;;;;;31.50;29.75;;;;;25.04;62.02;99494.91;5065304;28;8863;-73
2022/06/05 02:26:17;;;;;;;;;28.75;27.75;;;;;25.08;61.72;99493.78;5065701;28;8993;-74
2022/06/05 02:28:45;;;;;;;;;30.25;28.25;;;;;25.13;61.73;99498.00;5065250;28;8950;-74
2022/06/05 02:31:31;;;;;;;;;32.50;29.75;;;;;25.14;61.47;99492.56;5032872;28;8860;-73
2022/06/05 02:34:11;;;;;;;;;32.50;31.00;;;;;25.18;61.31;99496.75;5071842;28;8968;-74
2022/06/05 02:36:58;;;;;;;;;25.00;25.00;;;;;25.20;61.09;99489.50;5088386;28;9659;-76
2022/06/05 02:39:38;;;;;;;;;30.50;29.25;;;;;25.12;61.51;99483.75;5055918;28;8966;-73
2022/06/05 02:42:20;;;;;;;;;30.25;29.00;;;;;25.00;62.22;99490.72;5091315;28;8840;-74
2022/06/05 02:44:56;;;;;;;;;27.50;27.50;;;;;24.99;61.73;99491.69;5091792;28;8867;-73
2022/06/05 02:47:36;;;;;;;;;32.75;28.25;;;;;24.98;61.85;99495.28;5090288;28;8820;-74
2022/06/05 02:50:12;;;;;;;;;31.50;31.25;;;;;24.99;61.74;99497.03;5090594;28;8859;-73
2022/06/05 02:52:42;;;;;;;;;30.00;27.50;;;;;24.98;61.68;99495.28;5091549;28;8840;-74
2022/06/05 02:55:15;;;;;;;;;32.50;30.25;;;;;24.98;61.68;99486.44;5091599;28;8840;-73
2022/06/05 02:57:45;;;;;;;;;33.50;31.00;;;;;24.98;61.67;99481.97;5091184;28;8859;-74
2022/06/05 03:00:16;;;;;;;;;34.50;30.00;;;;;24.99;61.77;99483.69;5090479;28;8847;-73
2022/06/05 03:05:33;;;;;;;;;31.50;28.75;;;;;24.63;63.26;99487.63;5091488;28;8832;-74
2022/06/05 03:08:02;;;;;;;;;31.00;30.25;;;;;24.40;64.26;99480.94;5091455;28;8827;-73
2022/06/05 03:10:31;;;;;;;;;38.00;30.25;;;;;24.32;64.62;99476.06;5091476;28;8851;-75
2022/06/05 03:13:01;;;;;;;;;28.00;25.75;;;;;24.14;65.50;99474.47;5055627;28;8872;-73
2022/06/05 03:15:30;;;;;;;;;30.00;28.75;;;;;24.00;65.96;99480.59;5091467;28;8847;-74
2022/06/05 03:18:00;;;;;;;;;33.50;31.50;;;;;23.97;66.21;99478.13;5090661;28;8968;-72
2022/06/05 03:20:28;;;;;;;;;34.00;32.00;;;;;23.93;66.37;99480.09;5090965;28;8835;-74
2022/06/05 03:22:57;;;;;;;;;32.75;31.00;;;;;24.00;65.98;99491.25;5091321;28;8851;-72
2022/06/05 03:25:26;;;;;;;;;33.00;30.75;;;;;24.02;65.88;99488.50;5091070;28;8847;-73
2022/06/05 03:27:55;;;;;;;;;36.50;32.25;;;;;24.18;65.35;99493.78;5090897;28;9624;-74
2022/06/05 03:30:24;;;;;;;;;29.75;27.25;;;;;24.32;64.77;99486.72;5055562;28;8871;-73
2022/06/05 03:32:53;;;;;;;;;33.50;30.25;;;;;24.33;65.15;99482.25;5071434;28;8851;-74
2022/06/05 03:35:22;;;;;;;;;32.00;28.75;;;;;24.25;65.60;99477.38;5090784;28;8859;-73
2022/06/05 03:37:52;;;;;;;;;34.25;31.75;;;;;24.20;65.77;99475.94;5090412;28;8859;-73
2022/06/05 03:40:20;;;;;;;;;30.75;30.00;;;;;24.17;66.04;99484.09;5071298;28;9023;-75
2022/06/05 03:42:49;;;;;;;;;33.00;31.75;;;;;24.26;65.63;99491.56;5090108;28;8844;-74
2022/06/05 03:45:18;;;;;;;;;33.25;30.25;;;;;24.38;65.22;99488.16;5090318;28;8895;-73
2022/06/05 03:47:47;;;;;;;;;39.25;34.75;;;;;24.35;65.59;99485.69;5089884;28;8844;-73
2022/06/05 03:50:18;;;;;;;;;32.25;31.50;;;;;24.47;65.24;99476.97;5090324;28;8847;-74
2022/06/05 03:52:49;;;;;;;;;33.50;31.00;;;;;24.44;65.62;99471.84;5055312;28;8860;-74
2022/06/05 03:55:21;;;;;;;;;36.25;32.25;;;;;24.48;65.53;99464.47;5090182;28;8848;-73
2022/06/05 03:57:51;;;;;;;;;33.25;30.25;;;;;24.45;65.42;99465.53;5089930;28;8860;-74
2022/06/05 04:00:22;;;;;;;;;33.00;32.00;;;;;24.41;65.49;99456.00;5090190;28;8866;-73
2022/06/05 04:02:51;;;;;;;;;30.00;29.75;;;;;24.29;65.98;99460.25;5089811;28;8851;-74
2022/06/05 04:05:22;;;;;;;;;37.25;32.25;;;;;24.40;65.38;99456.09;5090034;28;8956;-74
2022/06/05 04:07:52;;;;;;;;;35.75;32.50;;;;;24.22;66.34;99452.72;5089729;28;8864;-74
2022/06/05 04:10:21;;;;;;;;;31.75;31.25;;;;;24.28;66.29;99452.34;5089729;28;8839;-73
2022/06/05 04:12:49;;;;;;;;;33.50;31.50;;;;;24.46;65.51;99456.59;5088479;28;8859;-74
2022/06/05 04:15:18;;;;;;;;;35.75;33.00;;;;;24.60;65.14;99461.13;5089522;28;8847;-75
2022/06/05 04:17:47;;;;;;;;;34.50;31.00;;;;;24.65;65.03;99464.38;5089712;28;8882;-73
2022/06/05 04:20:15;;;;;;;;;37.25;33.00;;;;;24.68;64.94;99474.84;5089717;28;8844;-73
2022/06/05 04:22:44;;;;;;;;;30.75;30.50;;;;;24.79;64.23;99476.03;5088446;28;8848;-74
2022/06/05 04:25:15;;;;;;;;;29.50;28.75;;;;;24.98;63.70;99481.09;5089962;28;8876;-74
2022/06/05 04:27:43;;;;;;;;;35.50;32.00;;;;;25.00;63.64;99481.88;5070328;28;8970;-74
2022/06/05 04:30:12;;;;;;;;;30.75;30.00;;;;;25.10;63.50;99477.66;5089483;28;8820;-74
2022/06/05 04:32:41;;;;;;;;;49.25;41.00;;;;;25.28;62.81;99471.22;5070529;28;8855;-73
2022/06/05 04:35:11;;;;;;;;;35.75;31.75;;;;;25.46;62.24;99465.66;5089297;28;8860;-73
2022/06/05 04:37:39;;;;;;;;;41.25;35.50;;;;;25.39;61.93;99477.72;5089424;28;8832;-74
2022/06/05 04:40:10;;;;;;;;;54.75;45.00;;;;;25.39;62.12;99473.22;5089438;28;8838;-74
2022/06/05 04:42:39;;;;;;;;;38.50;32.50;;;;;25.59;61.81;99471.94;5089519;28;8843;-73
2022/06/05 04:45:09;;;;;;;;;37.25;32.50;;;;;25.69;61.81;99477.56;5088021;28;8851;-73
2022/06/05 04:47:37;;;;;;;;;31.25;29.75;;;;;25.84;61.35;99473.91;5089234;28;8913;-75
2022/06/05 04:50:07;;;;;;;;;33.50;32.00;;;;;25.83;61.06;99484.69;5089191;28;8846;-73
2022/06/05 04:52:36;;;;;;;;;54.00;44.25;;;;;26.02;60.82;99495.91;5054037;28;8886;-73
2022/06/05 04:55:07;;;;;;;;;34.75;30.25;;;;;26.05;60.98;99498.41;5089154;28;8843;-74
2022/06/05 04:57:35;;;;;;;;;34.75;32.50;;;;;26.15;60.71;99498.66;5089220;28;8864;-74
2022/06/05 05:00:07;;;;;;;;;50.75;42.50;;;;;26.31;59.95;99503.81;5086832;28;8863;-74
2022/06/05 05:02:36;;;;;;;;;32.50;31.50;;;;;26.31;60.44;99511.00;5087435;28;9605;-74
2022/06/05 05:05:05;;;;;;;;;31.00;29.50;;;;;26.39;60.03;99505.97;5086121;28;9634;-74
2022/06/05 05:07:35;;;;;;;;;33.75;30.50;;;;;26.43;60.04;99500.34;5086357;28;8842;-73
2022/06/05 05:10:04;;;;;;;;;30.75;29.75;;;;;26.52;59.39;99509.59;5086029;28;8846;-75
2022/06/05 05:12:32;;;;;;;;;29.25;29.25;;;;;26.61;59.53;99502.75;5086310;28;8846;-73
2022/06/05 05:15:00;;;;;;;;;29.75;28.25;;;;;26.66;59.16;99502.47;5086105;28;8880;-74
2022/06/05 05:17:30;;;;;;;;;30.00;28.75;;;;;26.68;59.44;99506.75;5086411;28;8829;-74
2022/06/05 05:19:59;;;;;;;;;29.25;28.25;;;;;26.82;58.59;99513.81;5086197;28;8861;-73
2022/06/05 05:22:27;;;;;;;;;28.50;28.25;;;;;26.95;58.68;99514.69;5086515;28;8838;-72
2022/06/05 05:24:56;;;;;;;;;30.50;29.00;;;;;27.21;58.32;99512.03;5086194;28;9599;-73
2022/06/05 05:27:26;;;;;;;;;35.75;33.00;;;;;27.44;58.07;99512.25;5086006;28;9056;-72
2022/06/05 05:29:54;;;;;;;;;32.25;30.75;;;;;27.63;56.79;99511.78;5085968;28;8903;-72
2022/06/05 05:32:23;;;;;;;;;40.50;34.50;;;;;27.83;55.97;99516.56;5085922;28;8900;-73
2022/06/05 05:34:52;;;;;;;;;23.00;20.00;;;;;27.99;54.55;99521.69;5086141;28;8849;-74
2022/06/05 05:37:21;;;;;;;;;26.25;25.50;;;;;28.15;54.67;99513.38;5088159;28;8855;-74
2022/06/05 05:42:44;;;;;;;;;31.50;30.25;;;;;28.57;53.77;99511.16;5065455;28;8870;-73
2022/06/05 05:45:13;;;;;;;;;28.00;26.50;;;;;28.77;53.01;99510.50;5029340;28;8838;-75
2022/06/05 05:47:42;;;;;;;;;24.25;23.25;;;;;28.95;51.96;99508.19;5045590;28;8884;-73
2022/06/05 05:50:16;;;;;;;;;21.25;20.00;;;;;29.11;51.00;99502.50;5045454;28;8858;-75
2022/06/05 05:52:46;;;;;;;;;22.25;21.25;;;;;29.24;50.63;99501.56;5045264;28;8963;-74
2022/06/05 05:55:17;;;;;;;;;20.60;18.80;;;;;29.29;49.48;99497.53;5045530;28;8842;-74
2022/06/05 05:57:47;;;;;;;;;19.60;19.40;;;;;29.45;49.64;99499.00;5045360;28;8858;-74
2022/06/05 06:00:18;;;;;;;;;16.50;16.50;;;;;29.58;48.95;99496.19;4996959;28;8878;-74
2022/06/05 06:02:47;;;;;;;;;18.80;18.60;;;;;29.73;49.02;99503.03;5056697;28;8832;-73
2022/06/05 06:05:19;;;;;;;;;17.80;15.20;;;;;29.90;47.57;99497.13;5065549;28;8844;-73
2022/06/05 06:07:47;;;;;;;;;16.00;16.00;;;;;29.98;46.87;99501.91;5032901;28;9629;-74
2022/06/05 06:10:16;;;;;;;;;12.80;12.40;;;;;30.01;46.57;99503.47;5065700;28;8855;-74
2022/06/05 06:12:44;;;;;;;;;56.50;45.00;;;;;30.08;45.24;99497.47;5018069;28;8864;-74
2022/06/05 06:15:13;;;;;;;;;13.80;13.80;;;;;30.14;45.80;99498.78;5069420;28;8883;-74
2022/06/05 06:17:42;;;;;;;;;12.80;12.80;;;;;30.22;45.92;99499.00;5071601;28;8835;-73
2022/06/05 06:20:12;;;;;;;;;13.00;11.80;;;;;30.26;45.61;99497.75;5092069;28;8874;-75
2022/06/05 06:22:42;;;;;;;;;14.00;14.00;;;;;30.35;45.66;99489.94;5091684;28;8940;-73
2022/06/05 06:25:11;;;;;;;;;17.00;16.80;;;;;30.46;45.75;99492.59;5090512;28;8927;-75
2022/06/05 06:27:40;;;;;;;;;14.00;14.00;;;;;30.50;45.11;99496.72;5091406;28;8840;-74
2022/06/05 06:30:13;;;;;;;;;14.80;14.80;;;;;30.44;44.86;99495.41;5091927;28;8848;-74
2022/06/05 06:32:41;;;;;;;;;16.00;14.60;;;;;30.52;44.81;99497.44;5091524;28;8904;-73
2022/06/05 06:35:10;;;;;;;;;16.40;16.40;;;;;30.56;44.56;99488.13;5091693;28;9625;-73
2022/06/05 06:37:39;;;;;;;;;13.80;13.80;;;;;30.60;43.13;99488.72;5090206;28;8867;-76
2022/06/05 06:40:10;;;;;;;;;15.60;14.60;;;;;30.63;43.83;99485.78;5090348;28;8871;-75
2022/06/05 06:42:39;;;;;;;;;12.80;12.80;;;;;30.66;43.95;99490.88;5056300;28;8859;-74
2022/06/05 06:45:09;;;;;;;;;14.20;13.00;;;;;30.71;42.77;99497.56;5072352;28;8855;-74
2022/06/05 06:47:38;;;;;;;;;14.40;13.60;;;;;30.71;43.11;99497.56;5072122;28;8859;-74
2022/06/05 06:50:07;;;;;;;;;96.50;89.00;;;;;30.82;42.85;99493.97;5090991;28;8978;-74
2022/06/05 06:52:37;;;;;;;;;45.75;37.75;;;;;30.95;42.98;99495.66;5090823;28;11560;-74
2022/06/05 06:55:07;;;;;;;;;17.60;17.60;;;;;31.02;42.23;99503.06;5090653;28;8985;-73
2022/06/05 06:57:36;;;;;;;;;29.25;28.25;;;;;30.92;42.41;99499.44;5072203;28;8952;-74
2022/06/05 07:00:06;;;;;;;;;18.80;18.80;;;;;30.94;43.25;99500.16;5091185;28;8873;-74
2022/06/05 07:02:35;;;;;;;;;14.80;14.80;;;;;30.98;43.63;99498.06;5090903;28;9674;-76
2022/06/05 07:05:04;;;;;;;;;19.80;19.60;;;;;30.93;44.02;99509.25;5090863;28;9625;-73
2022/06/05 07:07:32;;;;;;;;;20.00;20.00;;;;;31.11;43.71;99508.63;5090746;28;8989;-74
2022/06/05 07:10:01;;;;;;;;;19.40;19.00;;;;;31.14;42.98;99508.38;5054742;28;8844;-73
2022/06/05 07:12:30;;;;;;;;;18.00;18.00;;;;;31.26;42.02;99501.91;5090714;28;8855;-75
2022/06/05 07:15:00;;;;;;;;;19.80;19.80;;;;;31.38;41.46;99500.84;5090610;28;8868;-75
2022/06/05 07:17:28;;;;;;;;;21.25;21.25;;;;;31.47;41.72;99499.19;5090646;28;8974;-74
2022/06/05 07:19:57;;;;;;;;;27.00;24.25;;;;;31.52;40.64;99493.41;5054502;28;8883;-74
2022/06/05 07:22:27;;;;;;;;;21.25;20.50;;;;;31.61;40.13;99489.88;5054408;28;8844;-74
2022/06/05 07:24:55;;;;;;;;;29.25;27.75;;;;;31.66;40.78;99487.59;5090252;28;9005;-74
2022/06/05 07:27:25;;;;;;;;;24.75;23.25;;;;;31.72;40.63;99492.47;5090315;28;8851;-75
2022/06/05 07:29:54;;;;;;;;;25.00;23.75;;;;;31.79;39.92;99498.16;5090189;28;9012;-74
2022/06/05 07:32:24;;;;;;;;;19.00;19.00;;;;;31.85;39.45;99493.06;5090417;28;8920;-74
2022/06/05 07:34:53;;;;;;;;;18.00;17.40;;;;;31.81;37.04;99491.63;5090491;28;8982;-74
2022/06/05 07:37:21;;;;;;;;;14.20;14.20;;;;;31.24;37.53;99482.31;5090424;28;8836;-74
2022/06/05 07:39:50;;;;;;;;;18.20;18.20;;;;;31.24;38.38;99479.63;5088743;28;9022;-75
2022/06/05 07:42:21;;;;;;;;;18.20;17.60;;;;;31.34;39.23;99475.13;5090387;28;8844;-75
2022/06/05 07:44:50;;;;;;;;;19.25;19.00;;;;;31.51;39.37;99473.66;5090314;28;8917;-74
2022/06/05 07:47:18;;;;;;;;;19.50;17.75;;;;;31.64;39.10;99481.50;5071148;28;8839;-76
2022/06/05 07:49:48;;;;;;;;;19.50;19.50;;;;;31.71;38.99;99484.50;5090505;28;8839;-74
2022/06/05 07:55:09;;;;;;;;;20.75;20.50;;;;;31.79;38.93;99480.13;5040358;28;8879;-75
2022/06/05 07:57:37;;;;;;;;;19.25;19.25;;;;;31.95;39.27;99478.72;5066945;28;8860;-75
2022/06/05 08:00:09;;;;;;;;;21.50;20.00;;;;;31.91;39.32;99477.31;5017486;28;9030;-75
2022/06/05 08:02:39;;;;;;;;;19.00;18.25;;;;;31.98;38.91;99473.06;5067239;28;8855;-73
2022/06/05 08:05:10;;;;;;;;;21.50;20.25;;;;;32.04;38.71;99472.53;5017465;28;8860;-74
2022/06/05 08:07:39;;;;;;;;;22.25;22.25;;;;;32.10;38.66;99480.06;5066758;28;8932;-75
2022/06/05 08:10:08;;;;;;;;;19.50;19.50;;;;;32.16;38.98;99476.81;5066677;28;8852;-76
2022/06/05 08:12:37;;;;;;;;;24.75;24.75;;;;;32.27;38.23;99481.22;5066658;28;8966;-74
2022/06/05 08:15:09;;;;;;;;;18.60;18.60;;;;;32.32;37.68;99478.94;5001403;28;8878;-74
2022/06/05 08:17:38;;;;;;;;;17.50;17.50;;;;;32.35;37.86;99477.81;5066607;28;8978;-75
2022/06/05 08:20:10;;;;;;;;;17.00;17.00;;;;;32.45;37.78;99484.88;5066663;28;8840;-75
2022/06/05 08:22:39;;;;;;;;;25.00;24.00;;;;;32.42;37.40;99481.63;5066542;28;9161;-74
2022/06/05 08:25:08;;;;;;;;;24.00;24.00;;;;;32.38;37.43;99480.22;5049716;28;8844;-74
2022/06/05 08:27:37;;;;;;;;;22.75;22.00;;;;;32.51;37.65;99482.63;5066304;28;8837;-75
2022/06/05 08:30:06;;;;;;;;;38.50;34.75;;;;;32.62;37.04;99477.94;5065773;28;8859;-75
2022/06/05 08:32:35;;;;;;;;;18.00;18.00;;;;;32.76;36.68;99483.88;5062250;28;9007;-75
2022/06/05 08:35:04;;;;;;;;;17.50;17.25;;;;;32.80;36.35;99479.94;5070396;28;9647;-73
2022/06/05 08:43:26;;;;;;;;;28.50;28.00;;;;;33.01;36.32;99461.66;5088910;28;8863;-73
2022/06/05 08:46:02;;;;;;;;;18.25;18.25;;;;;33.05;35.46;99464.09;5088893;28;9665;-75
2022/06/05 08:48:35;;;;;;;;;22.00;22.00;;;;;33.00;36.06;99456.41;5087451;28;9010;-75
2022/06/05 08:51:22;;;;;;;;;19.25;19.25;;;;;33.00;35.21;99459.09;5088941;28;8836;-75
2022/06/05 08:53:56;;;;;;;;;15.75;15.00;;;;;33.08;35.64;99450.25;5088718;28;8859;-74
2022/06/05 08:56:32;;;;;;;;;19.50;19.25;;;;;33.18;35.58;99448.41;5088543;28;8859;-75
2022/06/05 08:59:08;;;;;;;;;18.25;17.50;;;;;33.13;34.84;99446.16;5069999;28;9005;-76
2022/06/05 09:01:42;;;;;;;;;18.25;17.25;;;;;33.00;35.46;99448.28;5088588;28;8867;-74
2022/06/05 09:04:46;;;;;;;;;15.00;15.00;;;;;33.16;35.28;99448.56;5088999;28;8859;-75
2022/06/05 09:07:20;;;;;;;;;16.75;16.50;;;;;33.20;34.70;99449.97;5045670;28;8842;-75
2022/06/05 09:09:54;;;;;;;;;28.25;28.00;;;;;33.06;34.66;99445.00;5045848;28;8858;-74
2022/06/05 09:12:29;;;;;;;;;15.25;14.75;;;;;33.12;35.11;99443.59;4996496;28;8885;-74
2022/06/05 09:15:04;;;;;;;;;26.25;26.25;;;;;33.21;35.06;99450.81;5045476;28;8846;-74
2022/06/05 09:17:34;;;;;;;;;17.50;17.50;;;;;33.10;34.37;99441.03;5045578;28;8858;-75
2022/06/05 09:20:03;;;;;;;;;17.50;16.50;;;;;33.28;34.90;99437.56;5029688;28;9659;-76
2022/06/05 09:22:37;;;;;;;;;12.50;12.50;;;;;33.28;34.43;99434.84;5045636;28;8883;-76
2022/06/05 09:25:26;;;;;;;;;13.50;13.50;;;;;33.32;34.34;99434.38;5045575;28;8842;-75
2022/06/05 09:28:15;;;;;;;;;14.75;13.75;;;;;33.37;34.30;99433.97;5045641;28;8896;-74
2022/06/05 09:30:51;;;;;;;;;13.60;13.60;;;;;33.40;34.13;99431.81;5045748;28;8831;-74
2022/06/05 09:33:23;;;;;;;;;15.00;13.80;;;;;33.33;33.71;99428.00;5045121;28;8846;-74
2022/06/05 09:35:57;;;;;;;;;10.40;9.20;;;;;33.24;34.09;99431.59;5045314;28;8858;-73
2022/06/05 09:38:30;;;;;;;;;10.00;10.00;;;;;33.29;33.21;99428.44;5045247;28;8865;-74
2022/06/05 09:41:22;;;;;;;;;11.50;11.00;;;;;33.31;33.16;99427.31;5045516;28;8877;-74
2022/06/05 09:44:08;;;;;;;;;10.60;10.60;;;;;33.19;33.72;99428.47;5059119;28;8883;-75
2022/06/05 09:46:58;;;;;;;;;9.80;9.80;;;;;33.17;33.59;99419.66;5089331;28;8883;-74
2022/06/05 09:49:35;;;;;;;;;9.40;9.40;;;;;33.15;32.99;99419.81;5092181;28;8867;-76
2022/06/05 09:52:12;;;;;;;;;8.60;7.60;;;;;33.13;32.52;99427.22;5092249;28;8851;-75
2022/06/05 09:54:45;;;;;;;;;8.60;7.80;;;;;33.15;32.63;99414.41;5092271;28;9778;-75
2022/06/05 10:00:30;;;;;;;;;9.60;8.20;;;;;33.17;33.18;99419.66;5092306;28;8855;-74
2022/06/05 10:03:02;;;;;;;;;7.60;7.60;;;;;33.18;33.18;99416.81;5092114;28;8853;-76
2022/06/05 10:05:34;;;;;;;;;8.20;8.20;;;;;33.22;32.71;99417.38;5091117;28;8870;-74
2022/06/05 10:08:16;;;;;;;;;10.60;9.40;;;;;33.26;32.39;99429.59;5092299;28;8859;-73
2022/06/05 10:10:46;;;;;;;;;8.40;8.40;;;;;33.12;33.58;99417.44;5091914;28;8848;-74
2022/06/05 10:13:26;;;;;;;;;12.60;12.20;;;;;33.17;34.51;99414.28;5092037;28;8863;-75
2022/06/05 10:16:02;;;;;;;;;10.80;10.20;;;;;33.14;35.73;99415.44;5093218;28;8866;-77
2022/06/05 10:18:39;;;;;;;;;9.20;9.20;;;;;33.21;35.23;99410.25;5056710;28;8889;-74
2022/06/05 10:21:11;;;;;;;;;10.80;10.80;;;;;33.27;35.43;99412.38;5057040;28;8894;-75
2022/06/05 10:23:51;;;;;;;;;9.00;9.00;;;;;33.29;34.56;99404.97;5092589;28;8851;-75
2022/06/05 10:26:28;;;;;;;;;12.00;12.00;;;;;33.20;34.53;99411.28;5091773;28;8863;-74
2022/06/05 10:29:21;;;;;;;;;10.40;10.40;;;;;33.14;34.62;99411.84;5055974;28;8860;-75
2022/06/05 10:31:57;;;;;;;;;9.20;9.20;;;;;33.23;34.89;99416.38;5091717;28;8843;-76
2022/06/05 10:34:36;;;;;;;;;13.00;13.00;;;;;33.35;34.72;99417.88;5091718;28;8847;-75
2022/06/05 10:37:16;;;;;;;;;10.60;10.60;;;;;33.29;34.33;99417.63;5091452;28;8883;-75
2022/06/05 10:40:05;;;;;;;;;10.20;10.20;;;;;33.38;34.16;99417.59;5055795;28;8863;-77
2022/06/05 10:42:41;;;;;;;;;13.20;13.00;;;;;33.49;34.15;99423.78;5091370;28;8835;-76
2022/06/05 10:45:35;;;;;;;;;11.00;10.00;;;;;33.59;33.68;99414.63;5091363;28;8855;-75
2022/06/05 10:48:21;;;;;;;;;12.00;12.00;;;;;33.74;34.15;99403.28;5091483;28;8848;-75
2022/06/05 10:50:56;;;;;;;;;13.40;12.20;;;;;33.66;32.89;99404.06;5091516;28;8871;-75
2022/06/05 10:53:33;;;;;;;;;12.40;12.40;;;;;33.94;33.89;99395.88;5091571;28;8930;-75
2022/06/05 10:56:18;;;;;;;;;11.25;11.25;;;;;34.09;34.03;99394.31;5091333;28;8867;-76
2022/06/05 10:58:54;;;;;;;;;11.80;11.80;;;;;34.21;33.10;99402.25;5088480;28;8948;-77
2022/06/05 11:04:36;;;;;;;;;12.25;12.25;;;;;34.34;33.71;99391.84;5101399;27;1373478;-76
2022/06/05 11:07:21;;;;;;;;;11.00;10.00;;;;;34.35;33.58;99389.00;5168018;27;8878;-77
2022/06/05 11:09:55;;;;;;;;;12.60;12.00;;;;;34.63;32.62;99391.53;5168057;27;8969;-75
2022/06/05 11:15:27;;;;;;;;;10.60;10.60;;;;;35.15;32.38;99383.38;5167714;27;8994;-74
2022/06/05 11:18:08;;;;;;;;;12.00;12.00;;;;;35.18;31.56;99381.38;5167731;27;8827;-76
2022/06/05 11:20:42;;;;;;;;;11.25;11.25;;;;;35.09;31.21;99372.34;5167697;27;8930;-75
2022/06/05 11:23:19;;;;;;;;;11.75;11.75;;;;;34.93;32.00;99384.78;5167413;27;8866;-75
2022/06/05 11:25:55;;;;;;;;;12.50;12.25;;;;;35.29;31.25;99376.50;5167618;27;8949;-76
2022/06/05 11:28:39;;;;;;;;;11.75;10.25;;;;;35.39;30.78;99389.06;5167888;27;8835;-75
2022/06/05 11:31:17;;;;;;;;;11.75;11.75;;;;;35.61;31.27;99374.06;5167669;27;9699;-76
2022/06/05 11:33:54;;;;;;;;;11.50;10.50;;;;;35.85;30.63;99373.28;5167674;27;8913;-74
2022/06/05 11:36:31;;;;;;;;;12.50;12.50;;;;;36.16;29.16;99378.88;5114475;27;8851;-74
2022/06/05 11:39:13;;;;;;;;;11.75;11.50;;;;;36.40;29.41;99369.06;5167173;27;8870;-75
2022/06/05 11:41:46;;;;;;;;;14.50;13.50;;;;;36.73;29.62;99375.31;5167350;27;9960;-75
2022/06/05 11:44:27;;;;;;;;;13.25;11.50;;;;;37.17;29.73;99368.56;5148611;27;8859;-75
2022/06/05 11:47:02;;;;;;;;;11.75;11.25;;;;;37.54;28.42;99372.41;5167518;27;8993;-76
2022/06/05 11:49:53;;;;;;;;;6.75;6.75;;;;;37.63;27.92;99355.03;5167344;27;8873;-75
2022/06/05 11:52:31;;;;;;;;;9.00;8.75;;;;;37.90;27.25;99356.34;5166990;27;8835;-74
2022/06/05 11:55:08;;;;;;;;;12.50;12.00;;;;;37.88;27.25;99357.56;5166891;27;8862;-76
2022/06/05 11:57:42;;;;;;;;;14.25;14.25;;;;;37.71;27.67;99352.25;5166775;27;8856;-75
2022/06/05 12:00:16;;;;;;;;;11.00;11.00;;;;;38.00;27.75;99356.97;5113722;27;8977;-77
2022/06/05 12:02:55;;;;;;;;;11.00;11.00;;;;;38.22;26.47;99349.84;5112816;27;8867;-75
2022/06/05 12:05:35;;;;;;;;;14.25;13.00;;;;;38.44;25.78;99339.06;5166823;27;8927;-74
2022/06/05 12:08:10;;;;;;;;;13.25;13.00;;;;;38.73;26.62;99340.97;5166610;27;8947;-77
2022/06/05 12:10:51;;;;;;;;;13.50;12.75;;;;;39.08;25.40;99335.81;5166895;27;8835;-75
2022/06/05 12:13:35;;;;;;;;;14.50;14.50;;;;;39.56;24.47;99336.16;5148202;27;8845;-76
2022/06/05 12:16:08;;;;;;;;;13.00;12.25;;;;;40.04;23.94;99334.72;5152937;27;8847;-76
2022/06/05 12:18:43;;;;;;;;;13.00;12.00;;;;;40.37;23.47;99326.00;5152804;27;8919;-74